createdAt,value
2018-07-13T00:00:07.434Z,0.00
2018-07-13T00:01:07.373Z,0.00
2018-07-13T00:02:07.286Z,0.00
2018-07-13T00:03:07.223Z,0.00
2018-07-13T00:04:07.137Z,0.00
2018-07-13T00:05:07.071Z,0.00
2018-07-13T00:06:06.993Z,0.00
2018-07-13T00:07:06.927Z,0.00
2018-07-13T00:08:06.845Z,0.00
2018-07-13T00:09:06.780Z,0.00
2018-07-13T00:10:06.695Z,0.00
2018-07-13T00:11:06.632Z,0.00
2018-07-13T00:12:06.552Z,0.00
2018-07-13T00:13:06.482Z,0.00
2018-07-13T00:14:06.403Z,0.00
2018-07-13T00:15:06.340Z,0.00
2018-07-13T00:16:06.259Z,0.00
2018-07-13T00:17:06.191Z,0.00
2018-07-13T00:18:06.112Z,0.00
2018-07-13T00:19:06.045Z,0.00
2018-07-13T00:20:05.963Z,0.00
2018-07-13T00:21:05.902Z,0.00
2018-07-13T00:22:05.816Z,0.00
2018-07-13T00:23:05.758Z,0.00
2018-07-13T00:24:05.667Z,0.00
2018-07-13T00:25:05.603Z,0.00
2018-07-13T00:26:05.522Z,0.00
2018-07-13T00:27:05.456Z,0.00
2018-07-13T00:28:05.376Z,0.00
2018-07-13T00:29:05.312Z,0.00
2018-07-13T00:30:05.226Z,0.00
2018-07-13T00:31:05.161Z,0.00
2018-07-13T00:32:05.083Z,0.00
2018-07-13T00:33:05.015Z,0.00
2018-07-13T00:34:04.932Z,0.00
2018-07-13T00:35:04.868Z,0.00
2018-07-13T00:36:04.782Z,0.00
2018-07-13T00:37:04.722Z,0.00
2018-07-13T00:38:04.639Z,0.00
2018-07-13T00:39:04.573Z,0.00
2018-07-13T00:40:04.499Z,0.00
2018-07-13T00:41:04.426Z,0.00
2018-07-13T00:42:04.343Z,0.00
2018-07-13T00:43:04.278Z,0.00
2018-07-13T00:44:04.198Z,0.00
2018-07-13T00:45:04.130Z,0.00
2018-07-13T00:46:04.049Z,0.00
2018-07-13T00:47:03.984Z,0.00
2018-07-13T00:48:03.901Z,0.00
2018-07-13T00:49:03.838Z,0.00
2018-07-13T00:50:03.753Z,0.00
2018-07-13T00:51:03.686Z,0.00
2018-07-13T00:52:03.611Z,0.00
2018-07-13T00:53:03.542Z,0.00
2018-07-13T00:54:03.463Z,0.00
2018-07-13T00:55:03.401Z,0.00
2018-07-13T00:56:03.314Z,0.00
2018-07-13T00:57:03.246Z,0.00
2018-07-13T00:58:03.167Z,0.00
2018-07-13T00:59:03.102Z,0.00
2018-07-13T01:00:03.016Z,0.00
2018-07-13T01:01:02.952Z,0.00
2018-07-13T01:02:02.870Z,0.00
2018-07-13T01:03:02.805Z,0.00
2018-07-13T01:04:02.725Z,0.00
2018-07-13T01:05:02.657Z,0.00
2018-07-13T01:06:02.576Z,0.00
2018-07-13T01:07:02.514Z,0.00
2018-07-13T01:08:02.431Z,0.00
2018-07-13T01:09:02.363Z,0.00
2018-07-13T01:10:02.287Z,0.00
2018-07-13T01:11:02.218Z,0.00
2018-07-13T01:12:02.136Z,0.00
2018-07-13T01:13:02.067Z,0.00
2018-07-13T01:14:01.986Z,0.00
2018-07-13T01:15:01.921Z,0.00
2018-07-13T01:16:01.838Z,0.00
2018-07-13T01:17:01.776Z,0.00
2018-07-13T01:18:01.691Z,0.00
2018-07-13T01:19:01.625Z,0.00
2018-07-13T01:20:01.547Z,0.00
2018-07-13T01:21:01.479Z,0.00
2018-07-13T01:22:01.401Z,0.00
2018-07-13T01:23:01.329Z,0.00
2018-07-13T01:24:01.251Z,0.00
2018-07-13T01:25:01.182Z,0.00
2018-07-13T01:26:01.102Z,0.00
2018-07-13T01:27:01.036Z,0.00
2018-07-13T01:28:00.953Z,0.00
2018-07-13T01:29:00.887Z,0.00
2018-07-13T01:30:00.813Z,0.00
2018-07-13T01:31:00.739Z,0.00
2018-07-13T01:32:00.663Z,0.00
2018-07-13T01:33:00.592Z,0.00
2018-07-13T01:34:00.512Z,0.00
2018-07-13T01:35:00.442Z,0.00
2018-07-13T01:36:00.363Z,0.00
2018-07-13T01:37:00.294Z,0.00
2018-07-13T01:38:00.220Z,0.00
2018-07-13T01:39:00.148Z,0.00
2018-07-13T01:40:00.063Z,0.00
2018-07-13T01:41:00.006Z,0.00
2018-07-13T01:41:59.921Z,0.00
2018-07-13T01:42:59.856Z,0.00
2018-07-13T01:43:59.774Z,0.00
2018-07-13T01:44:59.706Z,0.00
2018-07-13T01:45:59.621Z,0.00
2018-07-13T01:46:59.556Z,0.00
2018-07-13T01:47:59.474Z,0.00
2018-07-13T01:48:59.405Z,0.00
2018-07-13T01:49:59.326Z,0.00
2018-07-13T01:50:59.262Z,0.00
2018-07-13T01:51:59.178Z,0.00
2018-07-13T01:52:59.113Z,0.00
2018-07-13T01:53:59.055Z,0.00
2018-07-13T01:54:58.964Z,0.00
2018-07-13T01:55:58.878Z,0.00
2018-07-13T01:56:58.818Z,0.00
2018-07-13T01:57:58.734Z,0.00
2018-07-13T01:58:58.669Z,0.00
2018-07-13T01:59:58.585Z,0.00
2018-07-13T02:00:58.520Z,0.00
2018-07-13T02:01:58.434Z,0.00
2018-07-13T02:02:58.370Z,0.00
2018-07-13T02:03:58.286Z,0.00
2018-07-13T02:04:58.223Z,0.00
2018-07-13T02:05:58.136Z,0.00
2018-07-13T02:06:58.076Z,0.00
2018-07-13T02:07:57.991Z,0.00
2018-07-13T02:08:57.924Z,0.00
2018-07-13T02:09:57.846Z,0.00
2018-07-13T02:10:57.777Z,0.00
2018-07-13T02:11:57.696Z,0.00
2018-07-13T02:12:57.630Z,0.00
2018-07-13T02:13:57.543Z,0.00
2018-07-13T02:14:57.482Z,0.00
2018-07-13T02:15:57.396Z,0.00
2018-07-13T02:16:57.330Z,0.00
2018-07-13T02:17:57.249Z,0.00
2018-07-13T02:18:57.179Z,0.00
2018-07-13T02:19:57.102Z,0.00
2018-07-13T02:20:57.029Z,0.00
2018-07-13T02:21:56.950Z,0.00
2018-07-13T02:22:56.882Z,0.00
2018-07-13T02:23:56.803Z,0.00
2018-07-13T02:24:56.738Z,0.00
2018-07-13T02:25:56.647Z,0.00
2018-07-13T02:26:56.584Z,0.00
2018-07-13T02:27:56.502Z,0.00
2018-07-13T02:28:56.437Z,0.00
2018-07-13T02:29:56.351Z,0.00
2018-07-13T02:30:56.286Z,0.00
2018-07-13T02:31:56.206Z,0.00
2018-07-13T02:32:56.133Z,0.00
2018-07-13T02:33:56.095Z,0.00
2018-07-13T02:34:56.027Z,0.00
2018-07-13T02:35:55.906Z,0.00
2018-07-13T02:36:55.837Z,0.00
2018-07-13T02:37:55.797Z,0.00
2018-07-13T02:38:55.708Z,0.00
2018-07-13T02:39:55.608Z,0.00
2018-07-13T02:40:55.546Z,0.00
2018-07-13T02:41:55.461Z,0.00
2018-07-13T02:42:55.386Z,0.00
2018-07-13T02:43:55.310Z,0.00
2018-07-13T02:44:55.242Z,0.00
2018-07-13T02:45:55.162Z,0.00
2018-07-13T02:46:55.095Z,0.00
2018-07-13T02:47:55.012Z,0.00
2018-07-13T02:48:54.945Z,0.00
2018-07-13T02:49:54.862Z,0.00
2018-07-13T02:50:54.796Z,0.00
2018-07-13T02:51:54.715Z,0.00
2018-07-13T02:52:54.649Z,0.00
2018-07-13T02:53:54.563Z,0.00
2018-07-13T02:54:54.497Z,0.00
2018-07-13T02:55:54.413Z,0.00
2018-07-13T02:56:54.344Z,0.00
2018-07-13T02:57:54.268Z,0.00
2018-07-13T02:58:54.194Z,0.00
2018-07-13T02:59:54.114Z,0.00
2018-07-13T03:00:54.048Z,4.00
2018-07-13T03:01:53.969Z,0.00
2018-07-13T03:02:53.898Z,0.00
2018-07-13T03:03:53.823Z,0.00
2018-07-13T03:04:53.745Z,4.00
2018-07-13T03:05:53.667Z,0.00
2018-07-13T03:06:53.597Z,0.00
2018-07-13T03:07:53.513Z,4.00
2018-07-13T03:08:53.444Z,0.00
2018-07-13T03:09:53.416Z,4.00
2018-07-13T03:10:53.299Z,0.00
2018-07-13T03:11:53.212Z,4.00
2018-07-13T03:12:53.146Z,0.00
2018-07-13T03:13:53.065Z,4.00
2018-07-13T03:14:53.007Z,4.00
2018-07-13T03:15:52.917Z,4.00
2018-07-13T03:16:52.847Z,4.00
2018-07-13T03:17:52.769Z,8.00
2018-07-13T03:18:52.697Z,8.00
2018-07-13T03:19:52.615Z,8.00
2018-07-13T03:20:52.547Z,8.00
2018-07-13T03:21:52.466Z,8.00
2018-07-13T03:22:52.401Z,12.00
2018-07-13T03:23:52.313Z,12.00
2018-07-13T03:24:52.249Z,12.00
2018-07-13T03:25:52.168Z,12.00
2018-07-13T03:26:52.100Z,16.00
2018-07-13T03:27:52.013Z,16.00
2018-07-13T03:28:51.945Z,16.00
2018-07-13T03:29:51.863Z,16.00
2018-07-13T03:30:51.796Z,16.00
2018-07-13T03:31:51.713Z,20.00
2018-07-13T03:32:51.647Z,20.00
2018-07-13T03:33:51.563Z,24.00
2018-07-13T03:34:51.499Z,24.00
2018-07-13T03:35:51.414Z,24.00
2018-07-13T03:36:51.348Z,24.00
2018-07-13T03:37:51.261Z,28.00
2018-07-13T03:38:51.193Z,28.00
2018-07-13T03:39:51.115Z,32.00
2018-07-13T03:40:51.041Z,32.00
2018-07-13T03:41:50.966Z,36.00
2018-07-13T03:42:50.895Z,36.00
2018-07-13T03:43:50.862Z,36.00
2018-07-13T03:44:50.741Z,36.00
2018-07-13T03:45:50.658Z,40.00
2018-07-13T03:46:50.596Z,40.00
2018-07-13T03:47:50.509Z,44.00
2018-07-13T03:48:50.441Z,48.00
2018-07-13T03:49:50.362Z,44.00
2018-07-13T03:50:50.289Z,48.00
2018-07-13T03:51:50.210Z,48.00
2018-07-13T03:52:50.139Z,52.00
2018-07-13T03:53:50.074Z,52.00
2018-07-13T03:54:49.989Z,52.00
2018-07-13T03:55:49.904Z,56.00
2018-07-13T03:56:49.847Z,56.00
2018-07-13T03:57:49.811Z,60.00
2018-07-13T03:58:49.680Z,60.00
2018-07-13T03:59:49.608Z,64.00
2018-07-13T04:00:49.530Z,64.00
2018-07-13T04:01:49.531Z,68.00
2018-07-13T04:02:49.381Z,68.00
2018-07-13T04:03:49.353Z,72.00
2018-07-13T04:04:49.229Z,72.00
2018-07-13T04:05:49.251Z,76.00
2018-07-13T04:06:49.080Z,76.00
2018-07-13T04:07:49.007Z,80.00
2018-07-13T04:08:48.926Z,80.00
2018-07-13T04:09:48.867Z,80.00
2018-07-13T04:10:48.774Z,80.00
2018-07-13T04:11:48.778Z,84.00
2018-07-13T04:12:48.623Z,84.00
2018-07-13T04:13:48.586Z,88.00
2018-07-13T04:14:48.536Z,92.00
2018-07-13T04:15:48.504Z,88.00
2018-07-13T04:16:48.325Z,92.00
2018-07-13T04:17:48.311Z,92.00
2018-07-13T04:18:48.169Z,96.00
2018-07-13T04:19:48.181Z,100.00
2018-07-13T04:20:48.019Z,100.00
2018-07-13T04:21:47.952Z,104.00
2018-07-13T04:22:47.871Z,104.00
2018-07-13T04:23:47.811Z,104.00
2018-07-13T04:24:47.717Z,108.00
2018-07-13T04:25:47.650Z,112.00
2018-07-13T04:26:47.567Z,112.00
2018-07-13T04:27:47.503Z,116.00
2018-07-13T04:28:47.497Z,116.00
2018-07-13T04:29:47.348Z,116.00
2018-07-13T04:30:47.261Z,116.00
2018-07-13T04:31:47.276Z,120.00
2018-07-13T04:32:47.108Z,120.00
2018-07-13T04:33:47.049Z,120.00
2018-07-13T04:34:46.963Z,124.00
2018-07-13T04:35:46.998Z,120.00
2018-07-13T04:36:46.811Z,124.00
2018-07-13T04:37:46.747Z,128.00
2018-07-13T04:38:46.665Z,128.00
2018-07-13T04:39:46.591Z,128.00
2018-07-13T04:40:46.572Z,128.00
2018-07-13T04:41:46.441Z,128.00
2018-07-13T04:42:46.364Z,132.00
2018-07-13T04:43:46.294Z,132.00
2018-07-13T04:44:46.205Z,132.00
2018-07-13T04:45:46.243Z,136.00
2018-07-13T04:46:46.058Z,136.00
2018-07-13T04:47:46.056Z,140.00
2018-07-13T04:48:45.906Z,140.00
2018-07-13T04:49:45.833Z,140.00
2018-07-13T04:50:45.755Z,144.00
2018-07-13T04:51:45.685Z,148.00
2018-07-13T04:52:45.603Z,148.00
2018-07-13T04:53:45.533Z,152.00
2018-07-13T04:54:45.450Z,152.00
2018-07-13T04:55:45.385Z,156.00
2018-07-13T04:56:45.300Z,160.00
2018-07-13T04:57:45.234Z,164.00
2018-07-13T04:58:45.149Z,172.00
2018-07-13T04:59:45.111Z,176.00
2018-07-13T05:00:45.047Z,184.00
2018-07-13T05:01:45.037Z,188.00
2018-07-13T05:02:44.848Z,188.00
2018-07-13T05:03:44.832Z,188.00
2018-07-13T05:04:44.698Z,188.00
2018-07-13T05:05:44.640Z,192.00
2018-07-13T05:06:44.546Z,192.00
2018-07-13T05:07:44.477Z,192.00
2018-07-13T05:08:44.392Z,192.00
2018-07-13T05:09:44.358Z,196.00
2018-07-13T05:10:44.244Z,196.00
2018-07-13T05:11:44.269Z,196.00
2018-07-13T05:12:44.091Z,200.00
2018-07-13T05:13:44.073Z,204.00
2018-07-13T05:14:43.944Z,204.00
2018-07-13T05:15:43.880Z,208.00
2018-07-13T05:16:43.789Z,212.00
2018-07-13T05:17:43.794Z,220.00
2018-07-13T05:18:43.640Z,220.00
2018-07-13T05:19:43.599Z,224.00
2018-07-13T05:20:43.487Z,224.00
2018-07-13T05:21:43.516Z,216.00
2018-07-13T05:22:43.337Z,232.00
2018-07-13T05:23:43.326Z,232.00
2018-07-13T05:24:43.191Z,232.00
2018-07-13T05:25:43.133Z,236.00
2018-07-13T05:26:43.035Z,240.00
2018-07-13T05:27:43.041Z,240.00
2018-07-13T05:28:42.885Z,244.00
2018-07-13T05:29:42.849Z,248.00
2018-07-13T05:30:42.761Z,252.00
2018-07-13T05:31:42.762Z,260.00
2018-07-13T05:32:42.584Z,268.00
2018-07-13T05:33:42.570Z,272.00
2018-07-13T05:34:42.436Z,280.00
2018-07-13T05:35:42.379Z,288.00
2018-07-13T05:36:42.284Z,300.00
2018-07-13T05:37:42.290Z,308.00
2018-07-13T05:38:42.136Z,328.00
2018-07-13T05:39:42.099Z,348.00
2018-07-13T05:40:41.983Z,360.00
2018-07-13T05:41:42.010Z,376.00
2018-07-13T05:42:41.835Z,384.00
2018-07-13T05:43:41.820Z,392.00
2018-07-13T05:44:41.692Z,400.00
2018-07-13T05:45:41.628Z,408.00
2018-07-13T05:46:41.534Z,428.00
2018-07-13T05:47:41.534Z,444.00
2018-07-13T05:48:41.385Z,456.00
2018-07-13T05:49:41.361Z,464.00
2018-07-13T05:50:41.238Z,472.00
2018-07-13T05:51:41.259Z,480.00
2018-07-13T05:52:41.090Z,488.00
2018-07-13T05:53:41.067Z,492.00
2018-07-13T05:54:40.936Z,496.00
2018-07-13T05:55:40.975Z,500.00
2018-07-13T05:56:40.786Z,504.00
2018-07-13T05:57:40.785Z,508.00
2018-07-13T05:58:40.635Z,512.00
2018-07-13T05:59:40.594Z,512.00
2018-07-13T06:00:40.487Z,516.00
2018-07-13T06:01:40.504Z,516.00
2018-07-13T06:02:40.338Z,512.00
2018-07-13T06:03:40.314Z,512.00
2018-07-13T06:04:40.189Z,512.00
2018-07-13T06:05:40.228Z,508.00
2018-07-13T06:06:40.042Z,504.00
2018-07-13T06:07:40.034Z,504.00
2018-07-13T06:08:39.892Z,500.00
2018-07-13T06:09:39.847Z,496.00
2018-07-13T06:10:39.742Z,496.00
2018-07-13T06:11:39.753Z,492.00
2018-07-13T06:12:39.594Z,488.00
2018-07-13T06:13:39.563Z,484.00
2018-07-13T06:14:39.505Z,484.00
2018-07-13T06:15:39.473Z,484.00
2018-07-13T06:16:39.302Z,484.00
2018-07-13T06:17:39.284Z,484.00
2018-07-13T06:18:39.149Z,492.00
2018-07-13T06:19:39.198Z,492.00
2018-07-13T06:20:39.004Z,500.00
2018-07-13T06:21:39.001Z,504.00
2018-07-13T06:22:38.855Z,508.00
2018-07-13T06:23:38.806Z,512.00
2018-07-13T06:24:38.711Z,516.00
2018-07-13T06:25:38.722Z,520.00
2018-07-13T06:26:38.561Z,520.00
2018-07-13T06:27:38.532Z,524.00
2018-07-13T06:28:38.409Z,532.00
2018-07-13T06:29:38.447Z,532.00
2018-07-13T06:30:38.259Z,536.00
2018-07-13T06:31:38.324Z,540.00
2018-07-13T06:32:38.111Z,540.00
2018-07-13T06:33:38.058Z,548.00
2018-07-13T06:34:37.970Z,548.00
2018-07-13T06:35:37.969Z,556.00
2018-07-13T06:36:37.818Z,560.00
2018-07-13T06:37:37.778Z,568.00
2018-07-13T06:38:37.674Z,572.00
2018-07-13T06:39:37.688Z,580.00
2018-07-13T06:40:37.527Z,584.00
2018-07-13T06:41:37.497Z,576.00
2018-07-13T06:42:37.380Z,584.00
2018-07-13T06:43:37.407Z,592.00
2018-07-13T06:44:37.228Z,596.00
2018-07-13T06:45:37.216Z,604.00
2018-07-13T06:46:37.085Z,608.00
2018-07-13T06:47:37.125Z,612.00
2018-07-13T06:48:36.935Z,624.00
2018-07-13T06:49:36.935Z,628.00
2018-07-13T06:50:36.815Z,632.00
2018-07-13T06:51:36.744Z,632.00
2018-07-13T06:52:36.649Z,640.00
2018-07-13T06:53:36.654Z,644.00
2018-07-13T06:54:36.499Z,652.00
2018-07-13T06:55:36.469Z,660.00
2018-07-13T06:56:36.353Z,664.00
2018-07-13T06:57:36.374Z,672.00
2018-07-13T06:58:36.208Z,676.00
2018-07-13T06:59:36.144Z,680.00
2018-07-13T07:00:36.065Z,692.00
2018-07-13T07:01:36.094Z,696.00
2018-07-13T07:02:35.916Z,704.00
2018-07-13T07:03:35.901Z,712.00
2018-07-13T07:04:35.771Z,724.00
2018-07-13T07:05:35.813Z,736.00
2018-07-13T07:06:35.626Z,748.00
2018-07-13T07:07:35.681Z,760.00
2018-07-13T07:08:35.483Z,772.00
2018-07-13T07:09:35.432Z,788.00
2018-07-13T07:10:35.339Z,808.00
2018-07-13T07:11:35.342Z,824.00
2018-07-13T07:12:35.190Z,840.00
2018-07-13T07:13:35.150Z,864.00
2018-07-13T07:14:35.053Z,892.00
2018-07-13T07:15:35.062Z,932.00
2018-07-13T07:16:34.901Z,964.00
2018-07-13T07:17:34.870Z,1012.00
2018-07-13T07:18:34.760Z,1064.00
2018-07-13T07:19:34.701Z,1096.00
2018-07-13T07:20:34.611Z,1088.00
2018-07-13T07:21:34.662Z,1048.00
2018-07-13T07:22:34.468Z,1020.00
2018-07-13T07:23:34.469Z,1036.00
2018-07-13T07:24:34.347Z,1120.00
2018-07-13T07:25:34.254Z,1328.00
2018-07-13T07:26:34.184Z,1400.00
2018-07-13T07:27:34.189Z,1524.00
2018-07-13T07:28:34.045Z,1600.00
2018-07-13T07:29:33.997Z,1628.00
2018-07-13T07:30:33.910Z,1748.00
2018-07-13T07:31:33.908Z,1776.00
2018-07-13T07:32:33.751Z,1672.00
2018-07-13T07:33:33.716Z,1664.00
2018-07-13T07:34:33.608Z,1520.00
2018-07-13T07:35:33.537Z,1376.00
2018-07-13T07:36:33.465Z,1408.00
2018-07-13T07:37:33.438Z,1328.00
2018-07-13T07:38:33.372Z,1684.00
2018-07-13T07:39:33.351Z,1556.00
2018-07-13T07:40:33.181Z,1916.00
2018-07-13T07:41:33.158Z,2128.00
2018-07-13T07:42:33.039Z,2344.00
2018-07-13T07:43:33.067Z,2120.00
2018-07-13T07:44:32.896Z,2392.00
2018-07-13T07:45:32.825Z,2424.00
2018-07-13T07:46:32.757Z,2424.00
2018-07-13T07:47:32.790Z,2492.00
2018-07-13T07:48:32.615Z,2548.00
2018-07-13T07:49:32.601Z,2612.00
2018-07-13T07:50:32.474Z,2648.00
2018-07-13T07:51:32.511Z,2572.00
2018-07-13T07:52:32.335Z,2692.00
2018-07-13T07:53:32.319Z,2764.00
2018-07-13T07:54:32.249Z,2788.00
2018-07-13T07:55:32.231Z,2828.00
2018-07-13T07:56:32.054Z,2856.00
2018-07-13T07:57:32.106Z,2840.00
2018-07-13T07:58:31.914Z,2208.00
2018-07-13T07:59:31.953Z,2328.00
2018-07-13T08:00:31.772Z,2800.00
2018-07-13T08:01:31.761Z,3136.00
2018-07-13T08:02:31.644Z,2904.00
2018-07-13T08:03:31.673Z,3108.00
2018-07-13T08:04:31.494Z,3220.00
2018-07-13T08:05:31.425Z,2992.00
2018-07-13T08:06:31.617Z,3152.00
2018-07-13T08:07:31.338Z,2032.00
2018-07-13T08:08:31.305Z,1848.00
2018-07-13T08:09:31.145Z,1916.00
2018-07-13T08:10:31.077Z,1580.00
2018-07-13T08:11:31.113Z,1924.00
2018-07-13T08:12:30.939Z,1768.00
2018-07-13T08:13:31.013Z,1616.00
2018-07-13T08:14:30.825Z,1868.00
2018-07-13T08:15:30.837Z,2148.00
2018-07-13T08:16:30.663Z,2324.00
2018-07-13T08:17:30.647Z,2068.00
2018-07-13T08:18:30.533Z,1912.00
2018-07-13T08:19:30.555Z,1936.00
2018-07-13T08:20:30.390Z,1912.00
2018-07-13T08:21:30.364Z,1980.00
2018-07-13T08:22:30.249Z,2576.00
2018-07-13T08:23:30.275Z,2220.00
2018-07-13T08:24:30.111Z,2404.00
2018-07-13T08:25:30.086Z,1760.00
2018-07-13T08:26:29.973Z,1888.00
2018-07-13T08:27:29.996Z,1868.00
2018-07-13T08:28:29.838Z,1956.00
2018-07-13T08:29:29.804Z,1816.00
2018-07-13T08:30:29.695Z,1640.00
2018-07-13T08:31:29.716Z,2716.00
2018-07-13T08:32:29.557Z,2012.00
2018-07-13T08:33:29.527Z,2104.00
2018-07-13T08:34:29.422Z,2064.00
2018-07-13T08:35:29.438Z,1708.00
2018-07-13T08:36:29.285Z,1572.00
2018-07-13T08:37:29.246Z,1676.00
2018-07-13T08:38:29.148Z,1656.00
2018-07-13T08:39:29.157Z,1576.00
2018-07-13T08:40:29.011Z,2096.00
2018-07-13T08:41:28.967Z,2120.00
2018-07-13T08:42:28.873Z,1552.00
2018-07-13T08:43:28.875Z,2000.00
2018-07-13T08:44:28.735Z,2896.00
2018-07-13T08:45:28.789Z,2632.00
2018-07-13T08:46:28.601Z,1932.00
2018-07-13T08:47:28.597Z,2492.00
2018-07-13T08:48:28.463Z,1908.00
2018-07-13T08:49:28.509Z,2820.00
2018-07-13T08:50:28.419Z,3328.00
2018-07-13T08:51:28.333Z,2496.00
2018-07-13T08:52:28.191Z,2900.00
2018-07-13T08:53:28.227Z,3204.00
2018-07-13T08:54:28.057Z,2468.00
2018-07-13T08:55:27.989Z,3420.00
2018-07-13T08:56:27.917Z,2984.00
2018-07-13T08:57:27.951Z,3120.00
2018-07-13T08:58:27.781Z,3240.00
2018-07-13T08:59:27.759Z,3240.00
2018-07-13T09:00:27.649Z,3212.00
2018-07-13T09:01:27.669Z,3204.00
2018-07-13T09:02:27.509Z,3192.00
2018-07-13T09:03:27.479Z,3168.00
2018-07-13T09:04:27.436Z,3152.00
2018-07-13T09:05:27.391Z,3128.00
2018-07-13T09:06:27.277Z,3104.00
2018-07-13T09:07:27.206Z,3092.00
2018-07-13T09:08:27.104Z,3088.00
2018-07-13T09:09:27.112Z,3084.00
2018-07-13T09:10:26.972Z,3056.00
2018-07-13T09:11:26.921Z,3068.00
2018-07-13T09:12:26.838Z,3068.00
2018-07-13T09:13:26.832Z,3052.00
2018-07-13T09:14:26.701Z,3024.00
2018-07-13T09:15:26.746Z,3004.00
2018-07-13T09:16:26.567Z,2972.00
2018-07-13T09:17:26.555Z,3004.00
2018-07-13T09:18:26.433Z,3012.00
2018-07-13T09:19:26.470Z,3036.00
2018-07-13T09:20:26.300Z,3036.00
2018-07-13T09:21:26.276Z,3040.00
2018-07-13T09:22:26.164Z,3064.00
2018-07-13T09:23:26.187Z,3108.00
2018-07-13T09:24:26.031Z,3104.00
2018-07-13T09:25:25.999Z,2996.00
2018-07-13T09:26:25.899Z,2864.00
2018-07-13T09:27:25.906Z,1796.00
2018-07-13T09:28:25.764Z,3012.00
2018-07-13T09:29:25.824Z,3012.00
2018-07-13T09:30:25.631Z,2980.00
2018-07-13T09:31:25.630Z,2960.00
2018-07-13T09:32:25.497Z,2984.00
2018-07-13T09:33:25.542Z,3012.00
2018-07-13T09:34:25.458Z,3068.00
2018-07-13T09:35:25.349Z,3040.00
2018-07-13T09:36:25.231Z,3044.00
2018-07-13T09:37:25.256Z,3024.00
2018-07-13T09:38:25.130Z,2960.00
2018-07-13T09:39:25.072Z,1120.00
2018-07-13T09:40:24.964Z,856.00
2018-07-13T09:41:24.983Z,808.00
2018-07-13T09:42:24.827Z,1292.00
2018-07-13T09:43:24.790Z,3052.00
2018-07-13T09:44:24.701Z,3016.00
2018-07-13T09:45:24.631Z,3000.00
2018-07-13T09:46:24.607Z,3004.00
2018-07-13T09:47:24.499Z,2972.00
2018-07-13T09:48:24.518Z,2972.00
2018-07-13T09:49:24.367Z,3020.00
2018-07-13T09:50:24.337Z,1336.00
2018-07-13T09:51:24.252Z,2860.00
2018-07-13T09:52:24.236Z,2892.00
2018-07-13T09:53:24.100Z,2912.00
2018-07-13T09:54:24.181Z,2692.00
2018-07-13T09:55:23.967Z,2840.00
2018-07-13T09:56:23.975Z,2440.00
2018-07-13T09:57:23.852Z,2340.00
2018-07-13T09:58:23.866Z,2504.00
2018-07-13T09:59:23.705Z,2828.00
2018-07-13T10:00:23.682Z,2796.00
2018-07-13T10:01:23.581Z,2812.00
2018-07-13T10:02:23.587Z,2784.00
2018-07-13T10:03:23.449Z,2792.00
2018-07-13T10:04:23.375Z,2792.00
2018-07-13T10:05:23.310Z,2788.00
2018-07-13T10:06:23.308Z,2768.00
2018-07-13T10:07:23.177Z,2728.00
2018-07-13T10:08:23.220Z,2700.00
2018-07-13T10:09:23.047Z,2688.00
2018-07-13T10:10:23.029Z,2692.00
2018-07-13T10:11:22.915Z,2716.00
2018-07-13T10:12:22.940Z,2748.00
2018-07-13T10:13:22.792Z,2776.00
2018-07-13T10:14:22.722Z,2788.00
2018-07-13T10:15:22.756Z,2792.00
2018-07-13T10:16:22.588Z,2772.00
2018-07-13T10:17:22.566Z,2764.00
2018-07-13T10:18:22.463Z,2756.00
2018-07-13T10:19:22.477Z,2728.00
2018-07-13T10:20:22.334Z,2716.00
2018-07-13T10:21:22.284Z,2692.00
2018-07-13T10:22:22.199Z,2700.00
2018-07-13T10:23:22.197Z,2684.00
2018-07-13T10:24:22.065Z,2684.00
2018-07-13T10:25:22.108Z,2644.00
2018-07-13T10:26:21.937Z,2628.00
2018-07-13T10:27:21.918Z,2644.00
2018-07-13T10:28:21.811Z,2612.00
2018-07-13T10:29:21.741Z,1696.00
2018-07-13T10:30:21.738Z,2540.00
2018-07-13T10:31:21.614Z,2540.00
2018-07-13T10:32:21.644Z,2512.00
2018-07-13T10:33:21.480Z,2544.00
2018-07-13T10:34:21.417Z,2588.00
2018-07-13T10:35:21.388Z,2588.00
2018-07-13T10:36:21.365Z,2596.00
2018-07-13T10:37:21.225Z,2576.00
2018-07-13T10:38:21.276Z,2556.00
2018-07-13T10:39:21.094Z,2564.00
2018-07-13T10:40:21.086Z,2568.00
2018-07-13T10:41:20.964Z,2576.00
2018-07-13T10:42:20.999Z,2576.00
2018-07-13T10:43:20.837Z,2588.00
2018-07-13T10:44:20.807Z,2616.00
2018-07-13T10:45:20.707Z,2652.00
2018-07-13T10:46:20.721Z,2672.00
2018-07-13T10:47:20.580Z,2704.00
2018-07-13T10:48:20.633Z,2740.00
2018-07-13T10:49:20.452Z,2768.00
2018-07-13T10:50:20.440Z,2772.00
2018-07-13T10:51:20.321Z,2424.00
2018-07-13T10:52:20.351Z,1044.00
2018-07-13T10:53:20.194Z,996.00
2018-07-13T10:54:20.159Z,988.00
2018-07-13T10:55:20.062Z,1660.00
2018-07-13T10:56:19.999Z,1136.00
2018-07-13T10:57:19.977Z,1284.00
2018-07-13T10:58:19.872Z,1532.00
2018-07-13T10:59:19.888Z,2656.00
2018-07-13T11:00:19.749Z,1632.00
2018-07-13T11:01:19.801Z,1108.00
2018-07-13T11:02:19.613Z,1176.00
2018-07-13T11:03:19.612Z,1156.00
2018-07-13T11:04:19.484Z,1152.00
2018-07-13T11:05:19.524Z,1172.00
2018-07-13T11:06:19.356Z,1208.00
2018-07-13T11:07:19.331Z,1256.00
2018-07-13T11:08:19.230Z,1320.00
2018-07-13T11:09:19.239Z,2584.00
2018-07-13T11:10:19.099Z,2720.00
2018-07-13T11:11:19.152Z,2624.00
2018-07-13T11:12:18.967Z,2544.00
2018-07-13T11:13:18.961Z,1980.00
2018-07-13T11:14:18.838Z,2404.00
2018-07-13T11:15:18.772Z,2488.00
2018-07-13T11:16:18.712Z,2300.00
2018-07-13T11:17:18.681Z,2484.00
2018-07-13T11:18:18.589Z,2056.00
2018-07-13T11:19:18.595Z,2432.00
2018-07-13T11:20:18.453Z,2068.00
2018-07-13T11:21:18.504Z,1488.00
2018-07-13T11:22:18.325Z,1060.00
2018-07-13T11:23:18.317Z,2396.00
2018-07-13T11:24:18.259Z,2352.00
2018-07-13T11:25:18.228Z,2324.00
2018-07-13T11:26:18.066Z,2292.00
2018-07-13T11:27:18.137Z,1196.00
2018-07-13T11:28:17.936Z,1472.00
2018-07-13T11:29:17.946Z,2128.00
2018-07-13T11:30:17.810Z,2316.00
2018-07-13T11:31:17.861Z,1536.00
2018-07-13T11:32:17.678Z,1776.00
2018-07-13T11:33:17.667Z,1008.00
2018-07-13T11:34:17.550Z,968.00
2018-07-13T11:35:17.489Z,936.00
2018-07-13T11:36:17.480Z,908.00
2018-07-13T11:37:17.463Z,856.00
2018-07-13T11:38:17.393Z,804.00
2018-07-13T11:39:17.229Z,764.00
2018-07-13T11:40:17.176Z,756.00
2018-07-13T11:41:17.103Z,756.00
2018-07-13T11:42:17.132Z,776.00
2018-07-13T11:43:16.972Z,808.00
2018-07-13T11:44:17.041Z,856.00
2018-07-13T11:45:16.843Z,936.00
2018-07-13T11:46:16.831Z,2152.00
2018-07-13T11:47:16.716Z,1088.00
2018-07-13T11:48:16.746Z,1040.00
2018-07-13T11:49:16.588Z,1480.00
2018-07-13T11:50:16.656Z,1172.00
2018-07-13T11:51:16.454Z,996.00
2018-07-13T11:52:16.662Z,944.00
2018-07-13T11:53:16.339Z,976.00
2018-07-13T11:54:16.387Z,1348.00
2018-07-13T11:55:16.195Z,960.00
2018-07-13T11:56:16.126Z,988.00
2018-07-13T11:57:16.092Z,1052.00
2018-07-13T11:58:16.003Z,1064.00
2018-07-13T11:59:16.002Z,1100.00
2018-07-13T12:00:15.875Z,1128.00
2018-07-13T12:01:15.915Z,1144.00
2018-07-13T12:02:15.747Z,1172.00
2018-07-13T12:03:15.721Z,1300.00
2018-07-13T12:04:15.612Z,2188.00
2018-07-13T12:05:15.632Z,2640.00
2018-07-13T12:06:15.485Z,2644.00
2018-07-13T12:07:15.443Z,2660.00
2018-07-13T12:08:15.349Z,2228.00
2018-07-13T12:09:15.361Z,1564.00
2018-07-13T12:10:15.225Z,1660.00
2018-07-13T12:11:15.266Z,1812.00
2018-07-13T12:12:15.097Z,2008.00
2018-07-13T12:13:15.078Z,1712.00
2018-07-13T12:14:14.968Z,1816.00
2018-07-13T12:15:14.989Z,1576.00
2018-07-13T12:16:14.834Z,1496.00
2018-07-13T12:17:14.902Z,1348.00
2018-07-13T12:18:14.706Z,1528.00
2018-07-13T12:19:14.704Z,1728.00
2018-07-13T12:20:14.580Z,1256.00
2018-07-13T12:21:14.620Z,1208.00
2018-07-13T12:22:14.448Z,1216.00
2018-07-13T12:23:14.439Z,1208.00
2018-07-13T12:24:14.320Z,1184.00
2018-07-13T12:25:14.340Z,1460.00
2018-07-13T12:26:14.195Z,2484.00
2018-07-13T12:27:14.251Z,2140.00
2018-07-13T12:28:14.060Z,1232.00
2018-07-13T12:29:14.060Z,1192.00
2018-07-13T12:30:13.928Z,1204.00
2018-07-13T12:31:13.972Z,1220.00
2018-07-13T12:32:13.802Z,1664.00